METAR Data
IDs: Format: Raw Decoded Include TAF

Data at: 2140 UTC 23 Oct 2021

SBKP 232100Z 34007KT CAVOK 31/07 Q1007